sensor_id;sensor_type;location;lat;lon;timestamp;pressure;altitude;pressure_sealevel;temperature;humidity
70559;BME280;58108;48.094;11.838;2024-01-25T00:00:17;96341.78;;;6.72;86.26
70559;BME280;58108;48.094;11.838;2024-01-25T00:02:42;96342.19;;;6.81;85.51
70559;BME280;58108;48.094;11.838;2024-01-25T00:05:08;96333.75;;;6.76;85.92
70559;BME280;58108;48.094;11.838;2024-01-25T00:07:33;96339.06;;;6.75;85.81
70559;BME280;58108;48.094;11.838;2024-01-25T00:09:59;96316.69;;;6.70;86.25
70559;BME280;58108;48.094;11.838;2024-01-25T00:12:24;96316.69;;;6.70;86.58
70559;BME280;58108;48.094;11.838;2024-01-25T00:14:50;96320.38;;;6.66;86.76
70559;BME280;58108;48.094;11.838;2024-01-25T00:17:17;96331.47;;;6.70;87.11
70559;BME280;58108;48.094;11.838;2024-01-25T00:19:42;96331.09;;;6.60;87.86
70559;BME280;58108;48.094;11.838;2024-01-25T00:22:08;96334.38;;;6.64;87.91
70559;BME280;58108;48.094;11.838;2024-01-25T00:24:34;96328.38;;;6.62;88.68
70559;BME280;58108;48.094;11.838;2024-01-25T00:26:59;96323.81;;;6.67;88.76
70559;BME280;58108;48.094;11.838;2024-01-25T00:29:25;96325.19;;;6.56;89.69
70559;BME280;58108;48.094;11.838;2024-01-25T00:31:50;96337.03;;;6.62;89.61
70559;BME280;58108;48.094;11.838;2024-01-25T00:34:16;96334.50;;;6.61;90.43
70559;BME280;58108;48.094;11.838;2024-01-25T00:36:42;96346.75;;;6.59;91.57
70559;BME280;58108;48.094;11.838;2024-01-25T00:39:08;96345.72;;;6.63;91.23
70559;BME280;58108;48.094;11.838;2024-01-25T00:41:34;96339.47;;;6.48;92.85
70559;BME280;58108;48.094;11.838;2024-01-25T00:44:00;96334.81;;;6.54;93.16
70559;BME280;58108;48.094;11.838;2024-01-25T00:46:26;96335.44;;;6.60;93.43
70559;BME280;58108;48.094;11.838;2024-01-25T00:48:52;96344.75;;;6.46;94.13
70559;BME280;58108;48.094;11.838;2024-01-25T00:51:21;96335.03;;;6.50;94.87
70559;BME280;58108;48.094;11.838;2024-01-25T00:53:47;96337.91;;;6.63;93.97
70559;BME280;58108;48.094;11.838;2024-01-25T00:56:13;96335.28;;;6.63;93.91
70559;BME280;58108;48.094;11.838;2024-01-25T00:58:38;96344.09;;;6.60;94.23
70559;BME280;58108;48.094;11.838;2024-01-25T01:01:04;96345.31;;;6.53;94.78
70559;BME280;58108;48.094;11.838;2024-01-25T01:03:30;96341.72;;;6.55;94.20
70559;BME280;58108;48.094;11.838;2024-01-25T01:05:56;96345.72;;;6.63;94.02
70559;BME280;58108;48.094;11.838;2024-01-25T01:08:23;96344.41;;;6.72;92.93
70559;BME280;58108;48.094;11.838;2024-01-25T01:10:49;96343.69;;;6.68;93.51
70559;BME280;58108;48.094;11.838;2024-01-25T01:13:14;96347.00;;;6.72;92.27
70559;BME280;58108;48.094;11.838;2024-01-25T01:15:40;96347.63;;;6.77;91.84
70559;BME280;58108;48.094;11.838;2024-01-25T01:18:05;96355.03;;;6.67;92.64
70559;BME280;58108;48.094;11.838;2024-01-25T01:20:31;96364.75;;;6.63;92.64
70559;BME280;58108;48.094;11.838;2024-01-25T01:22:56;96360.41;;;6.64;92.90
70559;BME280;58108;48.094;11.838;2024-01-25T01:25:22;96347.00;;;6.72;92.00
70559;BME280;58108;48.094;11.838;2024-01-25T01:27:47;96356.94;;;6.81;91.43
70559;BME280;58108;48.094;11.838;2024-01-25T01:30:13;96346.75;;;6.76;91.15
70559;BME280;58108;48.094;11.838;2024-01-25T01:32:38;96354.75;;;6.73;90.64
70559;BME280;58108;48.094;11.838;2024-01-25T01:35:04;96348.69;;;6.73;91.47
70559;BME280;58108;48.094;11.838;2024-01-25T01:37:30;96347.84;;;6.72;91.17
70559;BME280;58108;48.094;11.838;2024-01-25T01:39:55;96345.47;;;6.67;91.26
70559;BME280;58108;48.094;11.838;2024-01-25T01:42:21;96332.47;;;6.67;91.26
70559;BME280;58108;48.094;11.838;2024-01-25T01:44:50;96334.75;;;6.74;91.18
70559;BME280;58108;48.094;11.838;2024-01-25T01:47:15;96336.44;;;6.75;91.15
70559;BME280;58108;48.094;11.838;2024-01-25T01:49:42;96339.75;;;6.78;91.31
70559;BME280;58108;48.094;11.838;2024-01-25T01:52:08;96333.84;;;6.75;91.01
70559;BME280;58108;48.094;11.838;2024-01-25T01:54:34;96348.59;;;6.74;91.49
70559;BME280;58108;48.094;11.838;2024-01-25T01:56:59;96339.94;;;6.74;90.88
70559;BME280;58108;48.094;11.838;2024-01-25T01:59:25;96347.56;;;6.78;91.23
70559;BME280;58108;48.094;11.838;2024-01-25T02:01:52;96347.91;;;6.70;91.81
70559;BME280;58108;48.094;11.838;2024-01-25T02:04:17;96334.69;;;6.75;91.17
70559;BME280;58108;48.094;11.838;2024-01-25T02:06:43;96328.09;;;6.68;91.82
70559;BME280;58108;48.094;11.838;2024-01-25T02:09:09;96321.72;;;6.74;91.41
70559;BME280;58108;48.094;11.838;2024-01-25T02:11:35;96326.09;;;6.73;91.92
70559;BME280;58108;48.094;11.838;2024-01-25T02:14:00;96323.03;;;6.65;92.17
70559;BME280;58108;48.094;11.838;2024-01-25T02:16:26;96326.28;;;6.70;92.20
70559;BME280;58108;48.094;11.838;2024-01-25T02:18:51;96322.88;;;6.68;92.22
70559;BME280;58108;48.094;11.838;2024-01-25T02:21:19;96311.53;;;6.69;92.57
70559;BME280;58108;48.094;11.838;2024-01-25T02:23:45;96311.72;;;6.66;92.81
70559;BME280;58108;48.094;11.838;2024-01-25T02:26:10;96318.81;;;6.62;93.47
70559;BME280;58108;48.094;11.838;2024-01-25T02:28:36;96312.94;;;6.59;93.86
70559;BME280;58108;48.094;11.838;2024-01-25T02:31:02;96309.41;;;6.60;94.25
70559;BME280;58108;48.094;11.838;2024-01-25T02:33:28;96310.56;;;6.54;94.82
70559;BME280;58108;48.094;11.838;2024-01-25T02:35:54;96318.59;;;6.49;95.07
70559;BME280;58108;48.094;11.838;2024-01-25T02:38:19;96318.38;;;6.54;95.41
70559;BME280;58108;48.094;11.838;2024-01-25T02:40:45;96310.31;;;6.41;95.28
70559;BME280;58108;48.094;11.838;2024-01-25T02:43:10;96308.09;;;6.51;95.41
70559;BME280;58108;48.094;11.838;2024-01-25T02:45:36;96321.78;;;6.54;95.13
70559;BME280;58108;48.094;11.838;2024-01-25T02:48:02;96313.09;;;6.55;95.09
70559;BME280;58108;48.094;11.838;2024-01-25T02:50:29;96315.06;;;6.50;95.57
70559;BME280;58108;48.094;11.838;2024-01-25T02:52:54;96319.97;;;6.56;94.92
70559;BME280;58108;48.094;11.838;2024-01-25T02:55:20;96317.66;;;6.50;95.93
70559;BME280;58108;48.094;11.838;2024-01-25T02:57:45;96314.91;;;6.53;95.52
70559;BME280;58108;48.094;11.838;2024-01-25T03:00:11;96317.44;;;6.55;96.24
70559;BME280;58108;48.094;11.838;2024-01-25T03:02:37;96320.91;;;6.55;96.27
70559;BME280;58108;48.094;11.838;2024-01-25T03:05:03;96304.97;;;6.62;96.08
70559;BME280;58108;48.094;11.838;2024-01-25T03:07:28;96310.41;;;6.57;95.14
70559;BME280;58108;48.094;11.838;2024-01-25T03:09:54;96305.13;;;6.59;95.59
70559;BME280;58108;48.094;11.838;2024-01-25T03:12:19;96301.38;;;6.64;95.18
70559;BME280;58108;48.094;11.838;2024-01-25T03:14:45;96299.75;;;6.62;95.08
70559;BME280;58108;48.094;11.838;2024-01-25T03:17:10;96303.06;;;6.65;95.28
70559;BME280;58108;48.094;11.838;2024-01-25T03:19:37;96304.97;;;6.62;96.06
70559;BME280;58108;48.094;11.838;2024-01-25T03:22:03;96289.75;;;6.54;95.95
70559;BME280;58108;48.094;11.838;2024-01-25T03:24:29;96283.31;;;6.61;96.00
70559;BME280;58108;48.094;11.838;2024-01-25T03:26:54;96276.09;;;6.49;97.03
70559;BME280;58108;48.094;11.838;2024-01-25T03:29:20;96289.19;;;6.47;96.92
70559;BME280;58108;48.094;11.838;2024-01-25T03:31:45;96282.84;;;6.53;97.30
70559;BME280;58108;48.094;11.838;2024-01-25T03:34:11;96286.91;;;6.59;96.62
70559;BME280;58108;48.094;11.838;2024-01-25T03:36:38;96288.66;;;6.58;96.40
70559;BME280;58108;48.094;11.838;2024-01-25T03:39:05;96285.16;;;6.59;96.53
70559;BME280;58108;48.094;11.838;2024-01-25T03:41:31;96288.81;;;6.55;96.56
70559;BME280;58108;48.094;11.838;2024-01-25T03:43:56;96283.63;;;6.55;96.48
70559;BME280;58108;48.094;11.838;2024-01-25T03:46:22;96292.88;;;6.61;96.68
70559;BME280;58108;48.094;11.838;2024-01-25T03:48:47;96314.53;;;6.61;97.13
70559;BME280;58108;48.094;11.838;2024-01-25T03:51:13;96295.47;;;6.61;97.49
70559;BME280;58108;48.094;11.838;2024-01-25T03:53:38;96297.31;;;6.59;97.51
70559;BME280;58108;48.094;11.838;2024-01-25T03:56:10;96298.00;;;6.62;98.15
70559;BME280;58108;48.094;11.838;2024-01-25T03:58:36;96301.91;;;6.53;98.50
70559;BME280;58108;48.094;11.838;2024-01-25T04:01:02;96313.63;;;6.45;99.67
70559;BME280;58108;48.094;11.838;2024-01-25T04:03:28;96316.28;;;6.43;100.00
70559;BME280;58108;48.094;11.838;2024-01-25T04:05:53;96327.63;;;6.42;100.00
70559;BME280;58108;48.094;11.838;2024-01-25T04:08:19;96324.38;;;6.37;100.00
70559;BME280;58108;48.094;11.838;2024-01-25T04:10:44;96322.41;;;6.42;100.00
70559;BME280;58108;48.094;11.838;2024-01-25T04:13:10;96322.69;;;6.36;100.00
70559;BME280;58108;48.094;11.838;2024-01-25T04:15:35;96330.44;;;6.37;100.00
70559;BME280;58108;48.094;11.838;2024-01-25T04:18:01;96330.06;;;6.45;100.00
70559;BME280;58108;48.094;11.838;2024-01-25T04:20:26;96335.69;;;6.36;100.00
70559;BME280;58108;48.094;11.838;2024-01-25T04:22:52;96332.59;;;6.47;100.00
70559;BME280;58108;48.094;11.838;2024-01-25T04:25:18;96339.19;;;6.54;100.00
70559;BME280;58108;48.094;11.838;2024-01-25T04:27:44;96338.72;;;6.46;100.00
70559;BME280;58108;48.094;11.838;2024-01-25T04:30:09;96341.31;;;6.46;100.00
70559;BME280;58108;48.094;11.838;2024-01-25T04:32:35;96350.63;;;6.50;100.00
70559;BME280;58108;48.094;11.838;2024-01-25T04:35:01;96348.19;;;6.47;100.00
70559;BME280;58108;48.094;11.838;2024-01-25T04:37:26;96350.16;;;6.41;100.00
70559;BME280;58108;48.094;11.838;2024-01-25T04:39:52;96357.97;;;6.41;100.00
70559;BME280;58108;48.094;11.838;2024-01-25T04:42:17;96356.00;;;6.47;100.00
70559;BME280;58108;48.094;11.838;2024-01-25T04:44:43;96365.25;;;6.52;100.00
70559;BME280;58108;48.094;11.838;2024-01-25T04:47:09;96363.22;;;6.59;99.57
70559;BME280;58108;48.094;11.838;2024-01-25T04:49:35;96366.34;;;6.48;99.71
70559;BME280;58108;48.094;11.838;2024-01-25T04:52:00;96365.03;;;6.57;99.70
70559;BME280;58108;48.094;11.838;2024-01-25T04:54:26;96365.19;;;6.54;99.52
70559;BME280;58108;48.094;11.838;2024-01-25T04:56:52;96367.22;;;6.47;100.00
70559;BME280;58108;48.094;11.838;2024-01-25T04:59:18;96366.88;;;6.55;100.00
70559;BME280;58108;48.094;11.838;2024-01-25T05:01:43;96376.81;;;6.47;100.00
70559;BME280;58108;48.094;11.838;2024-01-25T05:04:09;96381.97;;;6.48;100.00
70559;BME280;58108;48.094;11.838;2024-01-25T05:06:35;96380.25;;;6.47;100.00
70559;BME280;58108;48.094;11.838;2024-01-25T05:09:00;96381.03;;;6.49;99.68
70559;BME280;58108;48.094;11.838;2024-01-25T05:11:26;96381.25;;;6.45;100.00
70559;BME280;58108;48.094;11.838;2024-01-25T05:13:51;96385.53;;;6.46;100.00
70559;BME280;58108;48.094;11.838;2024-01-25T05:16:17;96381.53;;;6.38;100.00
70559;BME280;58108;48.094;11.838;2024-01-25T05:18:42;96382.78;;;6.49;100.00
70559;BME280;58108;48.094;11.838;2024-01-25T05:21:08;96384.22;;;6.37;100.00
70559;BME280;58108;48.094;11.838;2024-01-25T05:23:34;96388.06;;;6.28;100.00
70559;BME280;58108;48.094;11.838;2024-01-25T05:26:01;96392.28;;;6.31;100.00
70559;BME280;58108;48.094;11.838;2024-01-25T05:28:27;96397.44;;;6.32;100.00
70559;BME280;58108;48.094;11.838;2024-01-25T05:30:52;96387.19;;;6.29;100.00
70559;BME280;58108;48.094;11.838;2024-01-25T05:33:17;96386.75;;;6.38;100.00
70559;BME280;58108;48.094;11.838;2024-01-25T05:35:43;96390.69;;;6.28;100.00
70559;BME280;58108;48.094;11.838;2024-01-25T05:38:09;96395.59;;;6.34;100.00
70559;BME280;58108;48.094;11.838;2024-01-25T05:40:34;96392.38;;;6.29;100.00
70559;BME280;58108;48.094;11.838;2024-01-25T05:42:59;96391.03;;;6.39;100.00
70559;BME280;58108;48.094;11.838;2024-01-25T05:45:25;96413.31;;;6.45;100.00
70559;BME280;58108;48.094;11.838;2024-01-25T05:47:51;96404.34;;;6.51;100.00
70559;BME280;58108;48.094;11.838;2024-01-25T05:50:17;96413.09;;;6.50;100.00
70559;BME280;58108;48.094;11.838;2024-01-25T05:52:42;96413.09;;;6.50;100.00
70559;BME280;58108;48.094;11.838;2024-01-25T05:55:08;96409.78;;;6.46;100.00
70559;BME280;58108;48.094;11.838;2024-01-25T05:57:35;96409.78;;;6.46;100.00
70559;BME280;58108;48.094;11.838;2024-01-25T06:00:01;96416.50;;;6.33;100.00
70559;BME280;58108;48.094;11.838;2024-01-25T06:02:26;96412.28;;;6.30;100.00
70559;BME280;58108;48.094;11.838;2024-01-25T06:04:52;96421.19;;;6.24;100.00
70559;BME280;58108;48.094;11.838;2024-01-25T06:07:17;96416.78;;;6.26;100.00
70559;BME280;58108;48.094;11.838;2024-01-25T06:09:43;96425.34;;;6.28;100.00
70559;BME280;58108;48.094;11.838;2024-01-25T06:12:08;96427.66;;;6.35;100.00
70559;BME280;58108;48.094;11.838;2024-01-25T06:14:34;96437.31;;;6.33;100.00
70559;BME280;58108;48.094;11.838;2024-01-25T06:16:59;96435.53;;;6.33;100.00
70559;BME280;58108;48.094;11.838;2024-01-25T06:19:25;96444.69;;;6.23;100.00
70559;BME280;58108;48.094;11.838;2024-01-25T06:21:50;96435.09;;;6.23;100.00
70559;BME280;58108;48.094;11.838;2024-01-25T06:24:16;96439.69;;;6.18;100.00
70559;BME280;58108;48.094;11.838;2024-01-25T06:26:41;96454.88;;;6.27;100.00
70559;BME280;58108;48.094;11.838;2024-01-25T06:29:07;96449.59;;;6.29;100.00
70559;BME280;58108;48.094;11.838;2024-01-25T06:31:32;96455.22;;;6.20;100.00
70559;BME280;58108;48.094;11.838;2024-01-25T06:33:58;96460.91;;;6.28;99.47
70559;BME280;58108;48.094;11.838;2024-01-25T06:36:23;96461.75;;;6.28;99.93
70559;BME280;58108;48.094;11.838;2024-01-25T06:38:49;96461.81;;;6.27;100.00
70559;BME280;58108;48.094;11.838;2024-01-25T06:41:14;96489.41;;;6.31;100.00
70559;BME280;58108;48.094;11.838;2024-01-25T06:43:43;96468.91;;;6.23;100.00
70559;BME280;58108;48.094;11.838;2024-01-25T06:46:11;96476.88;;;6.20;100.00
70559;BME280;58108;48.094;11.838;2024-01-25T06:48:36;96478.00;;;6.14;100.00
70559;BME280;58108;48.094;11.838;2024-01-25T06:51:02;96472.59;;;6.19;100.00
70559;BME280;58108;48.094;11.838;2024-01-25T06:53:27;96494.63;;;6.10;100.00
70559;BME280;58108;48.094;11.838;2024-01-25T06:55:53;96493.72;;;6.11;100.00
70559;BME280;58108;48.094;11.838;2024-01-25T06:58:18;96514.78;;;6.05;100.00
70559;BME280;58108;48.094;11.838;2024-01-25T07:00:44;96503.84;;;5.97;100.00
70559;BME280;58108;48.094;11.838;2024-01-25T07:03:12;96507.91;;;6.04;100.00
70559;BME280;58108;48.094;11.838;2024-01-25T07:05:38;96507.25;;;5.99;100.00
70559;BME280;58108;48.094;11.838;2024-01-25T07:08:04;96518.03;;;5.89;100.00
70559;BME280;58108;48.094;11.838;2024-01-25T07:10:30;96512.09;;;5.86;100.00
70559;BME280;58108;48.094;11.838;2024-01-25T07:12:55;96517.72;;;5.77;100.00
70559;BME280;58108;48.094;11.838;2024-01-25T07:15:21;96531.56;;;5.77;100.00
70559;BME280;58108;48.094;11.838;2024-01-25T07:17:46;96533.09;;;5.81;100.00
70559;BME280;58108;48.094;11.838;2024-01-25T07:20:12;96524.84;;;5.71;100.00
70559;BME280;58108;48.094;11.838;2024-01-25T07:22:39;96531.41;;;5.80;100.00
70559;BME280;58108;48.094;11.838;2024-01-25T07:25:05;96538.25;;;5.83;100.00
70559;BME280;58108;48.094;11.838;2024-01-25T07:27:30;96539.47;;;5.74;100.00
70559;BME280;58108;48.094;11.838;2024-01-25T07:29:56;96534.22;;;5.75;100.00
70559;BME280;58108;48.094;11.838;2024-01-25T07:32:21;96546.16;;;5.80;100.00
70559;BME280;58108;48.094;11.838;2024-01-25T07:34:49;96551.09;;;5.86;99.97
70559;BME280;58108;48.094;11.838;2024-01-25T07:37:15;96564.09;;;5.86;99.59
70559;BME280;58108;48.094;11.838;2024-01-25T07:39:41;96569.75;;;5.96;98.31
70559;BME280;58108;48.094;11.838;2024-01-25T07:42:06;96565.63;;;5.92;98.65
70559;BME280;58108;48.094;11.838;2024-01-25T07:44:32;96570.63;;;5.96;98.76
70559;BME280;58108;48.094;11.838;2024-01-25T07:46:57;96577.19;;;6.05;97.16
70559;BME280;58108;48.094;11.838;2024-01-25T07:49:23;96565.28;;;5.99;94.97
70559;BME280;58108;48.094;11.838;2024-01-25T07:51:48;96568.63;;;6.01;93.70
70559;BME280;58108;48.094;11.838;2024-01-25T07:54:14;96563.44;;;6.01;93.48
70559;BME280;58108;48.094;11.838;2024-01-25T07:56:39;96564.34;;;6.02;93.09
70559;BME280;58108;48.094;11.838;2024-01-25T07:59:05;96567.31;;;6.13;92.95
70559;BME280;58108;48.094;11.838;2024-01-25T08:01:31;96570.91;;;6.11;93.55
70559;BME280;58108;48.094;11.838;2024-01-25T08:03:56;96576.94;;;6.11;93.87
70559;BME280;58108;48.094;11.838;2024-01-25T08:06:22;96573.22;;;6.17;94.72
70559;BME280;58108;48.094;11.838;2024-01-25T08:08:48;96569.06;;;6.13;95.52
70559;BME280;58108;48.094;11.838;2024-01-25T08:11:13;96566.78;;;6.05;96.08
70559;BME280;58108;48.094;11.838;2024-01-25T08:13:42;96577.59;;;6.17;95.53
70559;BME280;58108;48.094;11.838;2024-01-25T08:16:11;96589.63;;;5.97;96.53
70559;BME280;58108;48.094;11.838;2024-01-25T08:18:37;96582.38;;;6.05;96.15
70559;BME280;58108;48.094;11.838;2024-01-25T08:21:03;96568.72;;;6.00;96.28
70559;BME280;58108;48.094;11.838;2024-01-25T08:23:28;96564.59;;;5.94;97.19
70559;BME280;58108;48.094;11.838;2024-01-25T08:25:54;96564.91;;;5.88;97.03
70559;BME280;58108;48.094;11.838;2024-01-25T08:28:19;96562.81;;;5.75;97.96
70559;BME280;58108;48.094;11.838;2024-01-25T08:30:45;96568.31;;;5.88;97.21
70559;BME280;58108;48.094;11.838;2024-01-25T08:33:11;96545.13;;;5.84;97.30
70559;BME280;58108;48.094;11.838;2024-01-25T08:35:37;96538.69;;;5.93;96.98
70559;BME280;58108;48.094;11.838;2024-01-25T08:38:03;96560.66;;;6.06;96.73
70559;BME280;58108;48.094;11.838;2024-01-25T08:40:29;96570.09;;;6.09;95.83
70559;BME280;58108;48.094;11.838;2024-01-25T08:42:55;96563.34;;;6.25;94.16
70559;BME280;58108;48.094;11.838;2024-01-25T08:45:20;96566.94;;;6.23;92.19
70559;BME280;58108;48.094;11.838;2024-01-25T08:47:46;96567.53;;;6.28;91.12
70559;BME280;58108;48.094;11.838;2024-01-25T08:50:12;96580.47;;;6.50;90.07
70559;BME280;58108;48.094;11.838;2024-01-25T08:52:38;96590.13;;;6.67;88.29
70559;BME280;58108;48.094;11.838;2024-01-25T08:55:04;96580.97;;;6.78;86.91
70559;BME280;58108;48.094;11.838;2024-01-25T08:57:40;96582.31;;;6.67;85.18
70559;BME280;58108;48.094;11.838;2024-01-25T09:00:07;96575.28;;;6.69;85.19
70559;BME280;58108;48.094;11.838;2024-01-25T09:02:36;96567.25;;;6.74;85.01
70559;BME280;58108;48.094;11.838;2024-01-25T09:05:04;96564.59;;;6.56;84.71
70559;BME280;58108;48.094;11.838;2024-01-25T09:07:29;96565.34;;;6.39;85.16
70559;BME280;58108;48.094;11.838;2024-01-25T09:09:55;96573.56;;;6.49;85.45
70559;BME280;58108;48.094;11.838;2024-01-25T09:12:20;96594.50;;;6.46;83.91
70559;BME280;58108;48.094;11.838;2024-01-25T09:14:46;96592.50;;;6.53;84.20
70559;BME280;58108;48.094;11.838;2024-01-25T09:17:12;96604.31;;;6.60;83.71
70559;BME280;58108;48.094;11.838;2024-01-25T09:19:39;96617.38;;;6.79;83.87
70559;BME280;58108;48.094;11.838;2024-01-25T09:22:06;96616.94;;;6.69;81.16
70559;BME280;58108;48.094;11.838;2024-01-25T09:24:33;96605.19;;;6.80;81.60
70559;BME280;58108;48.094;11.838;2024-01-25T09:27:02;96615.91;;;6.93;81.40
70559;BME280;58108;48.094;11.838;2024-01-25T09:29:27;96616.50;;;6.79;80.64
70559;BME280;58108;48.094;11.838;2024-01-25T09:31:56;96613.25;;;6.74;80.58
70559;BME280;58108;48.094;11.838;2024-01-25T09:34:22;96624.59;;;6.92;81.57
70559;BME280;58108;48.094;11.838;2024-01-25T09:36:47;96632.41;;;6.92;79.00
70559;BME280;58108;48.094;11.838;2024-01-25T09:39:13;96640.16;;;6.93;77.45
70559;BME280;58108;48.094;11.838;2024-01-25T09:41:40;96627.41;;;7.06;78.31
70559;BME280;58108;48.094;11.838;2024-01-25T09:44:08;96638.97;;;7.01;77.87
70559;BME280;58108;48.094;11.838;2024-01-25T09:46:34;96640.38;;;6.89;77.68
70559;BME280;58108;48.094;11.838;2024-01-25T09:49:01;96642.41;;;6.82;76.94
70559;BME280;58108;48.094;11.838;2024-01-25T09:51:32;96652.19;;;6.77;78.15
70559;BME280;58108;48.094;11.838;2024-01-25T09:54:02;96645.09;;;6.80;78.94
70559;BME280;58108;48.094;11.838;2024-01-25T09:56:29;96640.41;;;6.68;79.63
70559;BME280;58108;48.094;11.838;2024-01-25T09:58:57;96631.78;;;6.67;80.03
70559;BME280;58108;48.094;11.838;2024-01-25T10:01:22;96637.38;;;6.77;79.47
70559;BME280;58108;48.094;11.838;2024-01-25T10:03:48;96637.22;;;6.82;79.94
70559;BME280;58108;48.094;11.838;2024-01-25T10:06:14;96630.50;;;6.76;78.37
70559;BME280;58108;48.094;11.838;2024-01-25T10:08:41;96627.56;;;6.84;77.78
70559;BME280;58108;48.094;11.838;2024-01-25T10:11:06;96625.94;;;7.01;77.28
70559;BME280;58108;48.094;11.838;2024-01-25T10:13:49;96635.38;;;7.03;77.27
70559;BME280;58108;48.094;11.838;2024-01-25T10:16:19;96634.63;;;7.01;76.10
70559;BME280;58108;48.094;11.838;2024-01-25T10:18:48;96624.31;;;7.17;75.76
70559;BME280;58108;48.094;11.838;2024-01-25T10:21:15;96630.16;;;7.42;74.53
70559;BME280;58108;48.094;11.838;2024-01-25T10:23:44;96628.97;;;7.66;71.79
70559;BME280;58108;48.094;11.838;2024-01-25T10:26:11;96620.50;;;7.44;72.11
70559;BME280;58108;48.094;11.838;2024-01-25T10:28:36;96621.41;;;7.79;70.53
70559;BME280;58108;48.094;11.838;2024-01-25T10:31:03;96616.38;;;7.94;68.77
70559;BME280;58108;48.094;11.838;2024-01-25T10:33:33;96606.19;;;7.70;68.05
70559;BME280;58108;48.094;11.838;2024-01-25T10:36:00;96606.16;;;8.07;68.17
70559;BME280;58108;48.094;11.838;2024-01-25T10:38:34;96602.31;;;7.97;67.80
70559;BME280;58108;48.094;11.838;2024-01-25T10:41:02;96605.09;;;7.76;68.46
70559;BME280;58108;48.094;11.838;2024-01-25T10:43:28;96601.91;;;7.69;69.46
70559;BME280;58108;48.094;11.838;2024-01-25T10:45:58;96597.41;;;7.90;69.91
70559;BME280;58108;48.094;11.838;2024-01-25T10:48:27;96590.81;;;7.83;71.09
70559;BME280;58108;48.094;11.838;2024-01-25T10:50:55;96591.19;;;7.58;68.04
70559;BME280;58108;48.094;11.838;2024-01-25T10:53:24;96585.50;;;7.67;67.88
70559;BME280;58108;48.094;11.838;2024-01-25T10:55:50;96584.94;;;7.43;65.57
70559;BME280;58108;48.094;11.838;2024-01-25T10:58:16;96586.09;;;7.18;66.34
70559;BME280;58108;48.094;11.838;2024-01-25T11:00:50;96560.88;;;7.18;67.42
70559;BME280;58108;48.094;11.838;2024-01-25T11:03:18;96566.47;;;7.10;68.38
70559;BME280;58108;48.094;11.838;2024-01-25T11:05:44;96576.94;;;7.09;68.31
70559;BME280;58108;48.094;11.838;2024-01-25T11:08:20;96572.41;;;6.95;68.86
70559;BME280;58108;48.094;11.838;2024-01-25T11:10:50;96566.28;;;6.96;69.88
70559;BME280;58108;48.094;11.838;2024-01-25T11:13:26;96571.69;;;7.47;67.68
70559;BME280;58108;48.094;11.838;2024-01-25T11:15:52;96566.84;;;7.39;68.19
70559;BME280;58108;48.094;11.838;2024-01-25T11:18:18;96551.16;;;8.12;65.03
70559;BME280;58108;48.094;11.838;2024-01-25T11:20:47;96552.91;;;7.93;65.03
70559;BME280;58108;48.094;11.838;2024-01-25T11:23:14;96550.22;;;7.42;68.22
70559;BME280;58108;48.094;11.838;2024-01-25T11:25:44;96547.72;;;7.76;67.99
70559;BME280;58108;48.094;11.838;2024-01-25T11:28:10;96533.63;;;8.65;64.98
70559;BME280;58108;48.094;11.838;2024-01-25T11:30:36;96545.94;;;8.95;63.13
70559;BME280;58108;48.094;11.838;2024-01-25T11:33:07;96543.25;;;8.13;66.43
70559;BME280;58108;48.094;11.838;2024-01-25T11:35:33;96540.53;;;8.66;64.70
70559;BME280;58108;48.094;11.838;2024-01-25T11:37:58;96544.88;;;9.77;61.83
70559;BME280;58108;48.094;11.838;2024-01-25T11:40:25;96539.25;;;10.13;58.75
70559;BME280;58108;48.094;11.838;2024-01-25T11:42:51;96555.81;;;10.29;58.74
70559;BME280;58108;48.094;11.838;2024-01-25T11:45:17;96549.53;;;11.04;57.18
70559;BME280;58108;48.094;11.838;2024-01-25T11:47:43;96545.81;;;10.93;55.21
70559;BME280;58108;48.094;11.838;2024-01-25T11:50:11;96540.47;;;11.37;55.20
70559;BME280;58108;48.094;11.838;2024-01-25T11:52:37;96534.88;;;12.36;51.96
70559;BME280;58108;48.094;11.838;2024-01-25T11:55:05;96535.09;;;11.66;52.76
70559;BME280;58108;48.094;11.838;2024-01-25T11:57:34;96523.00;;;11.51;52.89
70559;BME280;58108;48.094;11.838;2024-01-25T12:00:01;96525.72;;;11.49;53.26
70559;BME280;58108;48.094;11.838;2024-01-25T12:02:33;96521.44;;;10.64;53.90
70559;BME280;58108;48.094;11.838;2024-01-25T12:05:02;96523.28;;;10.04;55.30
70559;BME280;58108;48.094;11.838;2024-01-25T12:07:29;96537.56;;;11.00;54.05
70559;BME280;58108;48.094;11.838;2024-01-25T12:10:05;96521.63;;;10.46;54.78
70559;BME280;58108;48.094;11.838;2024-01-25T12:12:30;96515.66;;;11.28;53.50
70559;BME280;58108;48.094;11.838;2024-01-25T12:15:00;96517.00;;;10.06;56.38
70559;BME280;58108;48.094;11.838;2024-01-25T12:17:27;96528.53;;;9.73;55.53
70559;BME280;58108;48.094;11.838;2024-01-25T12:19:55;96531.63;;;9.02;57.87
70559;BME280;58108;48.094;11.838;2024-01-25T12:22:21;96520.88;;;10.59;54.46
70559;BME280;58108;48.094;11.838;2024-01-25T12:24:47;96516.00;;;11.09;51.26
70559;BME280;58108;48.094;11.838;2024-01-25T12:27:15;96516.56;;;11.95;49.32
70559;BME280;58108;48.094;11.838;2024-01-25T12:29:41;96509.22;;;12.00;48.47
70559;BME280;58108;48.094;11.838;2024-01-25T12:32:09;96501.97;;;12.56;47.07
70559;BME280;58108;48.094;11.838;2024-01-25T12:34:34;96500.31;;;12.92;46.77
70559;BME280;58108;48.094;11.838;2024-01-25T12:37:00;96501.44;;;13.01;47.54
70559;BME280;58108;48.094;11.838;2024-01-25T12:39:25;96498.09;;;12.49;47.88
70559;BME280;58108;48.094;11.838;2024-01-25T12:41:51;96505.22;;;11.95;49.22
70559;BME280;58108;48.094;11.838;2024-01-25T12:44:16;96500.41;;;12.01;49.77
70559;BME280;58108;48.094;11.838;2024-01-25T12:46:42;96496.53;;;12.20;49.37
70559;BME280;58108;48.094;11.838;2024-01-25T12:49:08;96488.69;;;12.07;48.65
70559;BME280;58108;48.094;11.838;2024-01-25T12:51:33;96490.41;;;11.94;49.94